Time;durP1;ratioP1;P1;durP2;ratioP2;P2;SDS_P1;SDS_P2;PMS_P1;PMS_P2;Temp;Humidity;BMP_temperature;BMP_pressure;BME280_temperature;BME280_humidity;BME280_pressure;Samples;Min_cycle;Max_cycle;Signal;HPM_P1;HPM_P2
2022/09/09 00:01:49;;;;;;;1.13;0.30;;;;;;;15.35;67.27;100281.88;4824703;28;98959;-66
2022/09/09 00:04:27;;;;;;;1.38;0.30;;;;;;;15.31;67.37;100277.38;4853206;28;98022;-66
2022/09/09 00:07:26;;;;;;;0.50;0.20;;;;;;;15.30;67.02;100283.91;4833240;28;100047;-66
2022/09/09 00:10:27;;;;;;;1.25;0.47;;;;;;;15.24;67.36;100285.91;4864385;28;98127;-73
2022/09/09 00:13:19;;;;;;;1.10;0.40;;;;;;;15.20;67.21;100283.00;4842186;28;98229;-65
2022/09/09 00:15:59;;;;;;;1.27;0.30;;;;;;;15.18;67.08;100282.50;4862969;28;99862;-73
2022/09/09 00:18:50;;;;;;;1.02;0.20;;;;;;;15.17;66.95;100277.41;4816809;28;97912;-65
2022/09/09 00:21:17;;;;;;;0.70;0.30;;;;;;;15.12;67.13;100275.56;4868120;28;99452;-73
2022/09/09 00:23:54;;;;;;;0.73;0.30;;;;;;;15.10;66.97;100277.00;4840384;28;98330;-65
2022/09/09 00:26:49;;;;;;;0.90;0.30;;;;;;;15.10;67.16;100275.06;4836117;28;98288;-65
2022/09/09 00:29:29;;;;;;;0.50;0.20;;;;;;;15.14;67.17;100278.78;4835578;28;98911;-65
2022/09/09 00:31:59;;;;;;;0.93;0.40;;;;;;;15.16;67.18;100279.28;4834697;28;98225;-65
2022/09/09 00:34:27;;;;;;;1.73;0.40;;;;;;;15.18;67.01;100276.28;4816711;28;97967;-73
2022/09/09 00:36:53;;;;;;;0.60;0.20;;;;;;;15.21;67.14;100275.69;4843952;28;101274;-66
2022/09/09 00:39:49;;;;;;;2.67;0.35;;;;;;;15.21;66.86;100278.41;4856245;28;98451;-72
2022/09/09 00:42:32;;;;;;;0.82;0.30;;;;;;;15.21;66.80;100281.13;4855101;28;97926;-73
2022/09/09 00:45:31;;;;;;;0.40;0.17;;;;;;;15.22;66.85;100277.28;4874908;28;98016;-65
2022/09/09 00:47:58;;;;;;;0.95;0.40;;;;;;;15.19;67.05;100277.88;4866504;28;100279;-65
2022/09/09 00:50:45;;;;;;;0.82;0.30;;;;;;;15.18;66.93;100279.78;4840142;28;98211;-65
2022/09/09 00:53:37;;;;;;;1.00;0.32;;;;;;;15.17;66.91;100280.09;4868410;28;98355;-72
2022/09/09 00:56:09;;;;;;;0.60;0.27;;;;;;;15.13;66.97;100281.78;4868474;28;97976;-65
2022/09/09 00:58:35;;;;;;;1.25;0.30;;;;;;;15.12;67.00;100286.41;4868272;28;99513;-65
2022/09/09 01:01:12;;;;;;;1.45;0.30;;;;;;;15.11;66.90;100278.59;4824307;28;98151;-65
2022/09/09 01:03:53;;;;;;;0.43;0.20;;;;;;;15.07;66.90;100278.38;4827437;28;98015;-65
2022/09/09 01:06:36;;;;;;;2.72;0.30;;;;;;;15.05;66.81;100280.63;4842318;28;98393;-65
2022/09/09 01:09:43;;;;;;;0.65;0.30;;;;;;;15.03;66.74;100282.81;4817471;28;98419;-73
2022/09/09 01:12:22;;;;;;;1.48;0.30;;;;;;;14.97;66.98;100284.81;4847444;28;98169;-73
2022/09/09 01:15:09;;;;;;;0.80;0.30;;;;;;;14.94;66.84;100281.91;4848924;28;98069;-65
2022/09/09 01:18:05;;;;;;;0.93;0.30;;;;;;;14.91;66.67;100291.44;4856746;28;98295;-65
2022/09/09 01:20:47;;;;;;;0.98;0.30;;;;;;;14.88;66.68;100289.31;4843858;28;98381;-65
2022/09/09 01:23:22;;;;;;;0.60;0.20;;;;;;;14.84;66.78;100291.03;4867795;28;98090;-65
2022/09/09 01:26:15;;;;;;;0.85;0.40;;;;;;;14.82;66.64;100287.81;4877236;28;97963;-65
2022/09/09 01:28:45;;;;;;;0.80;0.40;;;;;;;14.78;66.77;100289.53;4874790;28;97924;-73
2022/09/09 01:31:34;;;;;;;1.23;0.50;;;;;;;14.75;66.53;100294.75;4840549;28;98155;-73
2022/09/09 01:34:01;;;;;;;0.70;0.20;;;;;;;14.71;66.67;100294.53;4833698;28;100070;-74
2022/09/09 01:36:38;;;;;;;0.85;0.30;;;;;;;14.67;66.42;100283.47;4847344;28;98653;-74
2022/09/09 01:39:04;;;;;;;1.13;0.32;;;;;;;14.65;66.71;100293.00;4839560;28;98033;-65
2022/09/09 01:41:31;;;;;;;0.70;0.22;;;;;;;14.61;66.62;100281.16;4857466;28;98357;-73
2022/09/09 01:43:58;;;;;;;0.90;0.30;;;;;;;14.59;66.43;100280.66;4830504;28;98089;-73
2022/09/09 01:46:24;;;;;;;0.80;0.32;;;;;;;14.56;66.72;100283.94;4842581;28;97858;-65
2022/09/09 01:48:52;;;;;;;0.57;0.22;;;;;;;14.54;66.39;100286.97;4852568;28;98139;-65
2022/09/09 01:51:18;;;;;;;0.90;0.30;;;;;;;14.50;66.76;100288.66;4832049;28;97979;-65
2022/09/09 01:53:44;;;;;;;0.70;0.20;;;;;;;14.48;66.60;100282.69;4832581;28;98254;-65
2022/09/09 01:56:20;;;;;;;1.70;0.30;;;;;;;14.45;66.54;100289.50;4846157;28;99289;-65
2022/09/09 01:59:00;;;;;;;0.80;0.20;;;;;;;14.41;66.78;100288.50;4860677;28;97879;-73
2022/09/09 02:01:41;;;;;;;1.30;0.32;;;;;;;14.38;66.41;100288.28;4863481;28;98543;-73
2022/09/09 02:04:37;;;;;;;0.70;0.20;;;;;;;14.35;66.35;100295.13;4879489;28;99835;-73
2022/09/09 02:07:04;;;;;;;2.85;0.30;;;;;;;14.30;66.57;100289.75;4853598;28;97957;-65
2022/09/09 02:09:31;;;;;;;0.75;0.30;;;;;;;14.29;66.82;100290.06;4857384;28;98509;-72
2022/09/09 02:12:13;;;;;;;1.27;0.40;;;;;;;14.27;66.62;100290.38;4839051;28;98454;-72
2022/09/09 02:14:52;;;;;;;0.87;0.30;;;;;;;14.22;66.53;100287.72;4825316;28;98406;-73
2022/09/09 02:17:27;;;;;;;0.77;0.25;;;;;;;14.20;66.05;100298.06;4845644;28;98188;-65
2022/09/09 02:20:14;;;;;;;3.85;0.30;;;;;;;14.17;66.66;100295.94;4844065;28;97961;-65
2022/09/09 02:22:43;;;;;;;0.82;0.30;;;;;;;14.14;66.57;100291.91;4831851;28;98122;-72
2022/09/09 02:25:12;;;;;;;0.90;0.20;;;;;;;14.14;66.49;100293.81;4841135;28;98115;-73
2022/09/09 02:27:38;;;;;;;5.60;0.30;;;;;;;14.14;66.52;100291.09;4863588;28;98279;-65
2022/09/09 02:30:05;;;;;;;0.93;0.20;;;;;;;14.12;66.73;100291.41;4863954;28;97904;-73
2022/09/09 02:32:32;;;;;;;0.40;0.20;;;;;;;14.11;66.78;100294.41;4851235;28;100045;-73
2022/09/09 02:35:05;;;;;;;0.95;0.28;;;;;;;14.08;66.29;100290.41;4832758;28;97962;-65
2022/09/09 02:37:39;;;;;;;1.02;0.30;;;;;;;14.07;66.67;100290.69;4843476;28;98259;-73
2022/09/09 02:40:07;;;;;;;0.57;0.17;;;;;;;14.06;66.26;100287.16;4829853;28;98004;-65
2022/09/09 02:42:43;;;;;;;0.65;0.20;;;;;;;14.04;66.39;100292.09;4858704;28;97850;-66
2022/09/09 02:45:11;;;;;;;0.40;0.10;;;;;;;14.01;66.44;100295.38;4829445;28;97899;-72
2022/09/09 02:48:29;;;;;;;1.27;0.22;;;;;;;13.99;66.30;100289.47;4851662;28;97983;-73
2022/09/09 02:51:24;;;;;;;0.50;0.20;;;;;;;13.96;66.47;100292.75;4868295;28;98117;-65
2022/09/09 02:54:22;;;;;;;0.95;0.20;;;;;;;13.91;66.01;100296.34;4841846;28;98881;-73
2022/09/09 02:56:56;;;;;;;1.08;0.22;;;;;;;13.85;66.62;100300.22;4843079;28;98280;-72
2022/09/09 02:59:23;;;;;;;0.60;0.20;;;;;;;13.83;66.30;100296.97;4848610;28;97906;-72
2022/09/09 03:01:49;;;;;;;0.47;0.20;;;;;;;13.82;66.53;100305.41;4843283;28;97927;-65
2022/09/09 03:04:16;;;;;;;0.80;0.13;;;;;;;13.79;66.59;100297.88;4822673;28;99120;-72
2022/09/09 03:06:43;;;;;;;0.55;0.20;;;;;;;13.78;66.42;100302.47;4838746;28;97998;-65
2022/09/09 03:09:10;;;;;;;1.08;0.22;;;;;;;13.73;66.62;100297.13;4862471;28;98303;-72
2022/09/09 03:11:38;;;;;;;0.98;0.30;;;;;;;13.73;66.31;100307.97;4848039;28;98077;-73
2022/09/09 03:14:04;;;;;;;1.20;0.30;;;;;;;13.70;66.61;100303.94;4847145;28;97991;-65
2022/09/09 03:16:31;;;;;;;0.60;0.20;;;;;;;13.68;66.64;100308.84;4857184;28;99827;-65
2022/09/09 03:18:57;;;;;;;1.25;0.40;;;;;;;13.65;66.53;100305.91;4845323;28;98334;-65
2022/09/09 03:21:24;;;;;;;2.47;0.30;;;;;;;13.63;66.45;100310.81;4834591;28;98334;-65
2022/09/09 03:23:51;;;;;;;1.13;0.45;;;;;;;13.58;66.17;100306.28;4852899;28;99808;-65
2022/09/09 03:26:17;;;;;;;1.42;0.73;;;;;;;13.57;66.59;100298.44;4840957;28;98180;-72
2022/09/09 03:28:44;;;;;;;0.95;0.50;;;;;;;13.55;66.54;100308.75;4830683;28;98072;-65
2022/09/09 03:31:10;;;;;;;1.02;0.35;;;;;;;13.51;66.52;100309.31;4820785;28;98197;-72
2022/09/09 03:33:38;;;;;;;1.05;0.40;;;;;;;13.51;66.45;100298.50;4845939;28;98391;-65
2022/09/09 03:36:05;;;;;;;0.60;0.20;;;;;;;13.50;66.41;100301.50;4830576;28;98058;-72
2022/09/09 03:38:31;;;;;;;0.68;0.30;;;;;;;13.48;66.47;100307.22;4832223;28;98121;-65
2022/09/09 03:40:58;;;;;;;1.73;0.20;;;;;;;13.46;66.59;100303.19;4849328;28;98339;-73
2022/09/09 03:43:25;;;;;;;1.13;0.30;;;;;;;13.46;66.27;100297.75;4834103;28;98190;-72
2022/09/09 03:45:52;;;;;;;2.05;0.30;;;;;;;13.43;66.64;100290.22;4846009;28;98307;-72
2022/09/09 03:48:18;;;;;;;0.57;0.25;;;;;;;13.41;66.31;100293.22;4833858;28;99526;-65
2022/09/09 03:50:49;;;;;;;0.60;0.20;;;;;;;13.40;66.35;100298.91;4847057;28;98300;-65
2022/09/09 03:53:16;;;;;;;0.93;0.20;;;;;;;13.38;66.67;100295.72;4821797;28;98046;-72
2022/09/09 03:55:54;;;;;;;0.80;0.20;;;;;;;13.37;66.27;100296.81;4829063;28;97916;-65
2022/09/09 03:58:26;;;;;;;0.90;0.20;;;;;;;13.34;66.60;100295.47;4830959;28;97854;-65
2022/09/09 04:01:12;;;;;;;0.90;0.30;;;;;;;13.30;66.24;100297.16;4843741;28;98031;-73
2022/09/09 04:03:39;;;;;;;1.75;0.35;;;;;;;13.30;66.26;100299.84;4848304;28;98093;-65
2022/09/09 04:06:06;;;;;;;0.70;0.30;;;;;;;13.31;66.57;100301.47;4864993;28;99075;-72
2022/09/09 04:08:35;;;;;;;0.77;0.40;;;;;;;13.30;66.58;100301.75;4841357;28;97972;-73
2022/09/09 04:11:05;;;;;;;1.92;0.43;;;;;;;13.31;66.29;100298.75;4853645;28;97939;-65
2022/09/09 04:13:34;;;;;;;1.75;0.57;;;;;;;13.29;66.26;100302.88;4836238;28;98338;-65
2022/09/09 04:16:01;;;;;;;2.60;0.70;;;;;;;13.27;66.52;100300.44;4829439;28;98857;-66
2022/09/09 04:18:28;;;;;;;1.60;0.40;;;;;;;13.22;66.65;100295.84;4850244;28;98307;-72
2022/09/09 04:20:58;;;;;;;1.13;0.40;;;;;;;13.21;66.32;100296.16;4861527;28;97894;-65
2022/09/09 04:23:29;;;;;;;1.30;0.40;;;;;;;13.19;66.70;100295.63;4827189;28;97915;-73
2022/09/09 04:25:56;;;;;;;2.55;0.50;;;;;;;13.18;66.37;100294.81;4824860;28;98157;-65
2022/09/09 04:28:25;;;;;;;1.27;0.32;;;;;;;13.17;66.30;100303.25;4814829;28;99356;-72
2022/09/09 04:30:52;;;;;;;1.00;0.40;;;;;;;13.19;66.84;100311.88;4842398;28;98043;-65
2022/09/09 04:33:18;;;;;;;2.22;0.63;;;;;;;13.18;66.32;100304.84;4826137;28;97918;-72
2022/09/09 04:35:50;;;;;;;1.55;0.60;;;;;;;13.18;66.57;100308.34;4844627;28;98319;-72
2022/09/09 04:38:17;;;;;;;1.20;0.50;;;;;;;13.19;66.21;100306.44;4820582;28;97907;-72
2022/09/09 04:40:46;;;;;;;1.90;0.50;;;;;;;13.20;66.61;100308.06;4825219;28;98237;-65
2022/09/09 04:43:14;;;;;;;1.55;0.32;;;;;;;13.20;66.71;100311.59;4807207;28;99886;-65
2022/09/09 04:45:41;;;;;;;2.17;0.50;;;;;;;13.17;66.62;100314.88;4783915;28;99957;-73
2022/09/09 04:48:09;;;;;;;1.60;0.82;;;;;;;13.17;66.42;100320.28;4826237;28;98111;-72
2022/09/09 04:50:38;;;;;;;1.10;0.52;;;;;;;13.20;66.07;100322.41;4842086;28;98050;-73
2022/09/09 04:53:06;;;;;;;1.98;0.45;;;;;;;13.22;66.35;100317.50;4807681;28;98294;-73
2022/09/09 04:55:33;;;;;;;1.63;0.30;;;;;;;13.24;66.55;100315.38;4843610;28;98317;-65
2022/09/09 04:58:09;;;;;;;1.55;0.40;;;;;;;13.30;66.34;100320.72;4845022;28;98367;-73
2022/09/09 05:00:35;;;;;;;2.20;0.57;;;;;;;13.32;66.08;100313.09;4844402;28;99486;-73
2022/09/09 05:03:06;;;;;;;1.00;0.40;;;;;;;13.35;66.31;100309.81;4843971;28;106447;-65
2022/09/09 05:05:36;;;;;;;1.55;0.32;;;;;;;13.38;66.33;100315.47;4822113;28;98154;-65
2022/09/09 05:08:07;;;;;;;1.55;0.30;;;;;;;13.41;66.37;100319.50;4842151;28;98174;-73
2022/09/09 05:10:34;;;;;;;1.88;0.40;;;;;;;13.44;66.27;100318.91;4817259;28;98352;-73
2022/09/09 05:13:01;;;;;;;1.00;0.50;;;;;;;13.46;66.44;100322.94;4825522;28;98248;-65
2022/09/09 05:15:27;;;;;;;0.70;0.30;;;;;;;13.51;66.45;100324.78;4851842;28;98379;-65
2022/09/09 05:17:56;;;;;;;0.90;0.30;;;;;;;13.54;66.46;100316.06;4825141;28;112173;-73
2022/09/09 05:20:23;;;;;;;1.60;0.30;;;;;;;13.58;66.15;100324.44;4828014;28;98181;-65
2022/09/09 05:22:54;;;;;;;1.58;0.30;;;;;;;13.63;66.21;100322.44;4844154;28;98711;-73
2022/09/09 05:25:22;;;;;;;2.58;0.30;;;;;;;13.70;66.41;100328.31;4822126;28;98002;-65
2022/09/09 05:27:49;;;;;;;1.92;0.20;;;;;;;13.74;66.40;100334.75;4838886;28;99266;-65
2022/09/09 05:30:16;;;;;;;1.77;0.22;;;;;;;13.80;66.19;100337.41;4844213;28;98028;-73
2022/09/09 05:32:43;;;;;;;1.90;0.30;;;;;;;13.87;66.23;100344.09;4832729;28;98073;-65
2022/09/09 05:35:09;;;;;;;1.23;0.30;;;;;;;13.94;65.77;100339.09;4843763;28;98788;-73
2022/09/09 05:37:36;;;;;;;0.52;0.22;;;;;;;14.03;66.09;100341.97;4840656;28;99268;-73
2022/09/09 05:40:02;;;;;;;1.20;0.35;;;;;;;14.12;65.49;100336.69;4837990;28;98080;-66
2022/09/09 05:42:32;;;;;;;0.65;0.20;;;;;;;14.18;65.78;100340.91;4826571;28;100094;-65
2022/09/09 05:45:03;;;;;;;0.50;0.22;;;;;;;14.28;65.47;100337.25;4832594;28;98408;-65
2022/09/09 05:47:29;;;;;;;0.70;0.20;;;;;;;14.39;65.81;100336.81;4827069;28;97850;-74
2022/09/09 05:49:56;;;;;;;1.25;0.40;;;;;;;14.47;65.67;100333.44;4843613;28;98281;-75
2022/09/09 05:52:23;;;;;;;3.92;0.47;;;;;;;14.56;65.58;100336.28;4843214;28;98160;-74
2022/09/09 05:54:50;;;;;;;1.77;0.22;;;;;;;14.61;65.41;100336.19;4821648;28;99949;-73
2022/09/09 05:57:19;;;;;;;1.27;0.25;;;;;;;14.67;65.66;100337.72;4836605;28;98943;-73
2022/09/09 05:59:47;;;;;;;3.78;0.20;;;;;;;14.72;65.45;100345.78;4817237;28;99277;-66
2022/09/09 06:02:14;;;;;;;0.57;0.28;;;;;;;14.78;65.62;100341.09;4843936;28;98697;-74
2022/09/09 06:04:40;;;;;;;1.80;0.30;;;;;;;14.85;65.41;100341.47;4828033;28;98228;-74
2022/09/09 06:07:06;;;;;;;2.15;0.30;;;;;;;14.93;65.48;100348.94;4825802;28;98145;-74
2022/09/09 06:09:33;;;;;;;0.50;0.10;;;;;;;15.02;65.26;100345.53;4822291;28;98286;-74
2022/09/09 06:11:59;;;;;;;1.00;0.20;;;;;;;15.13;65.36;100342.34;4820880;28;98788;-74
2022/09/09 06:14:27;;;;;;;1.05;0.30;;;;;;;15.23;65.19;100346.75;4811327;28;100544;-74
2022/09/09 06:16:53;;;;;;;0.90;0.20;;;;;;;15.35;65.22;100352.50;4821251;28;98198;-74
2022/09/09 06:19:20;;;;;;;1.10;0.20;;;;;;;15.52;64.76;100357.31;4838336;28;98223;-66
2022/09/09 06:21:47;;;;;;;0.57;0.10;;;;;;;15.63;64.49;100347.03;4840241;28;98402;-66
2022/09/09 06:24:17;;;;;;;0.57;0.22;;;;;;;15.76;64.68;100353.59;4833273;28;98038;-65
2022/09/09 06:26:45;;;;;;;0.68;0.20;;;;;;;15.84;64.56;100352.91;4858792;28;97989;-66
2022/09/09 06:29:12;;;;;;;1.48;0.10;;;;;;;15.93;64.54;100346.44;4837073;28;98353;-74
2022/09/09 06:31:38;;;;;;;0.50;0.10;;;;;;;16.07;64.55;100346.41;4842547;28;100474;-66
2022/09/09 06:34:07;;;;;;;2.42;0.20;;;;;;;16.23;64.36;100360.44;4850001;28;98020;-65
2022/09/09 06:36:36;;;;;;;1.50;0.15;;;;;;;16.58;63.68;100357.97;4848601;28;98031;-65
2022/09/09 06:39:05;;;;;;;1.23;0.20;;;;;;;16.64;63.91;100349.38;4847501;28;98044;-66
2022/09/09 06:41:32;;;;;;;1.95;0.20;;;;;;;16.73;63.82;100357.63;4832140;28;100140;-66
2022/09/09 06:44:00;;;;;;;1.25;0.20;;;;;;;16.84;63.67;100348.09;4846901;28;98243;-74
2022/09/09 06:46:30;;;;;;;3.47;0.20;;;;;;;16.94;63.51;100355.19;4846634;28;98287;-74
2022/09/09 06:48:59;;;;;;;0.40;0.10;;;;;;;17.07;63.46;100359.75;4860052;28;98357;-75
2022/09/09 06:51:42;;;;;;;0.57;0.10;;;;;;;17.21;63.17;100356.91;4849380;28;99025;-74
2022/09/09 06:54:09;;;;;;;1.00;0.10;;;;;;;17.37;62.75;100357.28;4847382;28;98088;-75
2022/09/09 06:56:41;;;;;;;0.40;0.10;;;;;;;17.52;63.00;100347.88;4855583;28;99772;-66
2022/09/09 06:59:09;;;;;;;1.42;0.17;;;;;;;17.70;62.69;100356.91;4849377;28;98067;-74
2022/09/09 07:01:45;;;;;;;0.40;0.10;;;;;;;17.90;62.55;100354.41;4851457;28;97885;-66
2022/09/09 07:04:13;;;;;;;2.25;0.17;;;;;;;18.05;61.80;100353.16;4830770;28;98237;-66
2022/09/09 07:06:43;;;;;;;0.60;0.10;;;;;;;18.19;61.89;100350.25;4847489;28;97937;-66
2022/09/09 07:09:11;;;;;;;0.63;0.10;;;;;;;18.36;61.84;100349.47;4849373;28;98022;-66
2022/09/09 07:11:44;;;;;;;0.80;0.13;;;;;;;18.59;61.59;100347.34;4847927;28;97886;-74
2022/09/09 07:14:13;;;;;;;0.77;0.10;;;;;;;18.81;61.02;100346.34;4853450;28;98673;-66
2022/09/09 07:16:43;;;;;;;0.15;0.03;;;;;;;18.98;60.92;100353.69;4835108;28;98044;-75
2022/09/09 07:19:10;;;;;;;2.17;0.20;;;;;;;19.07;60.66;100349.03;4839096;28;98481;-66
2022/09/09 07:21:37;;;;;;;0.40;0.10;;;;;;;19.17;60.34;100356.84;4853179;28;98399;-67
2022/09/09 07:24:07;;;;;;;0.20;0.00;;;;;;;19.24;60.23;100351.66;4849962;28;98143;-66
2022/09/09 07:26:34;;;;;;;0.38;0.08;;;;;;;19.35;60.30;100350.19;4832987;28;98586;-66
2022/09/09 07:29:00;;;;;;;0.47;0.10;;;;;;;19.52;59.67;100348.50;4834740;28;98401;-67
2022/09/09 07:31:30;;;;;;;0.20;0.00;;;;;;;19.68;59.62;100363.22;4840771;28;97984;-66
2022/09/09 07:33:56;;;;;;;0.65;0.10;;;;;;;19.65;59.95;100358.44;4846201;28;98780;-66
2022/09/09 07:36:29;;;;;;;0.15;0.00;;;;;;;19.77;59.43;100355.78;4832052;28;97819;-75
2022/09/09 07:39:07;;;;;;;1.30;0.10;;;;;;;20.17;58.78;100351.78;4849012;28;98272;-75
2022/09/09 07:41:42;;;;;;;0.55;0.10;;;;;;;20.65;58.12;100353.94;4833792;28;101019;-75
2022/09/09 07:44:15;;;;;;;1.55;0.10;;;;;;;21.02;57.54;100354.03;4857677;28;98142;-76
2022/09/09 07:46:42;;;;;;;0.40;0.03;;;;;;;21.07;57.42;100351.09;4833155;28;98153;-71
2022/09/09 07:49:10;;;;;;;0.40;0.10;;;;;;;21.35;56.80;100356.72;4848498;28;98099;-66
2022/09/09 07:51:40;;;;;;;0.55;0.13;;;;;;;21.66;56.09;100339.69;4850895;28;98227;-75
2022/09/09 07:54:09;;;;;;;0.65;0.10;;;;;;;22.04;55.89;100352.19;4829962;28;98243;-66
2022/09/09 07:56:36;;;;;;;0.38;0.10;;;;;;;22.48;55.02;100355.84;4865196;28;98440;-66
2022/09/09 07:59:06;;;;;;;0.30;0.10;;;;;;;23.01;53.85;100364.72;4850394;28;98060;-75
2022/09/09 08:01:54;;;;;;;1.17;0.05;;;;;;;23.15;54.73;100356.06;4867477;28;98113;-66
2022/09/09 08:04:20;;;;;;;1.75;0.10;;;;;;;23.58;53.19;100356.28;4849903;28;98811;-66
2022/09/09 08:06:52;;;;;;;0.57;0.10;;;;;;;24.27;51.81;100362.16;4861323;28;98221;-66
2022/09/09 08:09:20;;;;;;;;;;;;;;;25.28;51.93;100360.91;4850600;28;98096;-76
2022/09/09 08:11:47;;;;;;;0.10;0.00;;;;;;;25.32;50.87;100355.47;4845822;28;100111;-67
2022/09/09 08:14:13;;;;;;;0.40;0.08;;;;;;;24.69;51.77;100364.97;4846578;28;97842;-76
2022/09/09 08:16:42;;;;;;;2.70;0.10;;;;;;;24.31;52.49;100377.56;4848641;28;99415;-75
2022/09/09 08:19:15;;;;;;;0.57;0.00;;;;;;;24.12;53.00;100372.06;4849162;28;97921;-75
2022/09/09 08:21:41;;;;;;;0.13;0.00;;;;;;;24.17;52.06;100375.34;4822108;28;97994;-76
2022/09/09 08:24:08;;;;;;;0.55;0.03;;;;;;;24.55;51.67;100376.50;4840018;28;98983;-66
2022/09/09 08:26:42;;;;;;;0.80;0.10;;;;;;;24.35;52.41;100372.94;4822517;28;98911;-75
2022/09/09 08:29:10;;;;;;;0.15;0.00;;;;;;;23.98;52.76;100367.06;4840985;28;97912;-75
2022/09/09 08:31:44;;;;;;;1.13;0.10;;;;;;;23.63;53.07;100375.28;4839356;28;98266;-73
2022/09/09 08:34:10;;;;;;;0.88;0.00;;;;;;;23.29;53.66;100369.34;4841175;28;100090;-65
2022/09/09 08:36:42;;;;;;;0.15;0.00;;;;;;;22.91;54.06;100368.03;4839602;28;98603;-65
2022/09/09 08:39:08;;;;;;;0.55;0.05;;;;;;;22.61;54.27;100372.28;4836309;28;98061;-65
2022/09/09 08:42:02;;;;;;;0.32;0.10;;;;;;;22.34;54.64;100365.63;4837806;28;99577;-65
2022/09/09 08:44:35;;;;;;;0.20;0.00;;;;;;;22.19;55.07;100361.66;4856744;28;98013;-65
2022/09/09 08:47:06;;;;;;;5.05;0.00;;;;;;;22.13;55.06;100361.13;4869464;28;98177;-65
2022/09/09 08:50:00;;;;;;;0.88;0.03;;;;;;;22.13;54.99;100361.13;4873429;28;98106;-74
2022/09/09 08:52:39;;;;;;;0.60;0.10;;;;;;;22.22;54.32;100363.72;4842254;28;98041;-75
2022/09/09 08:55:36;;;;;;;0.17;0.00;;;;;;;22.20;54.81;100361.31;4847084;28;98452;-76
2022/09/09 08:58:31;;;;;;;0.28;0.05;;;;;;;22.67;54.14;100366.16;4876312;28;97981;-75
2022/09/09 09:01:19;;;;;;;1.70;0.10;;;;;;;26.19;48.24;100357.13;4845208;28;97924;-76
2022/09/09 09:04:17;;;;;;;0.73;0.10;;;;;;;28.40;46.22;100379.56;4842212;28;99576;-77
2022/09/09 09:07:28;;;;;;;0.50;0.10;;;;;;;26.76;49.53;100379.09;4843732;28;98627;-76
2022/09/09 09:10:39;;;;;;;0.43;0.10;;;;;;;30.16;44.40;100386.78;4834402;28;98089;-76
2022/09/09 09:13:47;;;;;;;1.17;0.00;;;;;;;29.79;45.99;100379.72;4865931;28;97964;-66
2022/09/09 09:16:32;;;;;;;1.05;0.10;;;;;;;28.32;47.98;100378.69;4830644;28;97954;-66
2022/09/09 09:18:59;;;;;;;0.40;0.10;;;;;;;27.40;48.35;100371.44;4856691;28;99151;-66
2022/09/09 09:21:37;;;;;;;2.17;0.03;;;;;;;26.74;49.13;100373.16;4830794;28;98077;-66
2022/09/09 09:24:05;;;;;;;0.40;0.10;;;;;;;26.25;49.50;100362.31;4847169;28;97929;-66
2022/09/09 09:26:35;;;;;;;1.48;0.10;;;;;;;25.85;50.00;100361.78;4842271;28;98363;-66
2022/09/09 09:29:16;;;;;;;1.80;0.10;;;;;;;25.35;51.16;100369.31;4811450;28;98573;-65
2022/09/09 09:31:58;;;;;;;0.55;0.00;;;;;;;24.99;51.42;100367.88;4829312;28;97781;-65
2022/09/09 09:34:26;;;;;;;0.32;0.00;;;;;;;24.68;51.49;100372.44;4874097;28;98639;-73
2022/09/09 09:36:56;;;;;;;2.25;0.15;;;;;;;24.51;51.89;100364.63;4812870;28;98531;-75
2022/09/09 09:39:28;;;;;;;0.38;0.10;;;;;;;24.39;52.07;100364.78;4828685;28;98582;-66
2022/09/09 09:41:56;;;;;;;0.57;0.10;;;;;;;24.25;52.10;100368.03;4831066;28;99363;-66
2022/09/09 09:44:35;;;;;;;0.38;0.00;;;;;;;24.00;52.82;100367.47;4862262;28;99193;-66
2022/09/09 09:47:16;;;;;;;0.65;0.10;;;;;;;23.61;53.46;100378.38;4840383;28;98156;-74
2022/09/09 09:49:59;;;;;;;0.28;0.00;;;;;;;23.29;54.03;100372.09;4858518;28;98474;-66
2022/09/09 09:52:28;;;;;;;0.50;0.00;;;;;;;22.97;54.09;100374.84;4823155;28;97910;-66
2022/09/09 09:54:55;;;;;;;0.20;0.00;;;;;;;22.59;54.47;100375.34;4840852;28;98650;-66
2022/09/09 09:57:30;;;;;;;0.90;0.00;;;;;;;22.16;54.88;100376.88;4830328;28;113139;-66
2022/09/09 10:00:21;;;;;;;0.20;0.03;;;;;;;21.74;55.22;100379.91;4838043;28;98210;-66
2022/09/09 10:02:51;;;;;;;0.55;0.10;;;;;;;21.36;56.09;100388.47;4845830;28;99834;-66
2022/09/09 10:05:27;;;;;;;0.50;0.10;;;;;;;21.05;56.25;100400.72;4844084;28;98019;-66
2022/09/09 10:08:17;;;;;;;0.73;0.10;;;;;;;20.76;56.51;100395.41;4862002;28;98131;-66
2022/09/09 10:11:15;;;;;;;0.60;0.05;;;;;;;20.48;56.88;100392.44;4845332;28;98499;-67
2022/09/09 10:14:52;;;;;;;3.10;0.10;;;;;;;20.21;56.99;100393.78;4862159;28;98285;-67
2022/09/09 10:17:54;;;;;;;0.20;0.00;;;;;;;19.95;57.23;100400.22;4751061;29;98267;-67
2022/09/09 10:20:44;;;;;;;0.68;0.10;;;;;;;19.81;57.82;100397.72;4748709;28;98167;-76
2022/09/09 10:23:37;;;;;;;0.30;0.00;;;;;;;19.78;57.38;100405.78;4856347;28;98093;-72
2022/09/09 10:26:27;;;;;;;0.30;0.00;;;;;;;19.80;57.44;100398.84;4857138;28;98162;-66
2022/09/09 10:29:03;;;;;;;0.63;0.00;;;;;;;19.90;57.62;100403.16;4870098;28;98397;-77
2022/09/09 10:31:51;;;;;;;2.53;0.00;;;;;;;20.09;56.94;100387.09;4869941;28;97858;-75
2022/09/09 10:34:36;;;;;;;0.30;0.00;;;;;;;20.20;57.05;100405.81;4850612;28;98224;-66
2022/09/09 10:37:04;;;;;;;0.70;0.00;;;;;;;20.24;57.35;100402.13;4846006;28;97964;-65
2022/09/09 10:39:42;;;;;;;0.68;0.00;;;;;;;20.27;57.29;100395.94;4842386;28;97890;-65
2022/09/09 10:42:15;;;;;;;0.30;0.00;;;;;;;20.32;57.35;100392.25;4843463;28;99699;-65
2022/09/09 10:44:50;;;;;;;0.68;0.00;;;;;;;20.34;57.43;100388.00;4853939;28;97986;-75
2022/09/09 10:47:38;;;;;;;0.25;0.00;;;;;;;20.62;56.92;100375.72;4869674;28;98033;-74
2022/09/09 10:50:29;;;;;;;0.30;0.10;;;;;;;21.53;55.31;100376.47;4870541;28;98193;-66
2022/09/09 10:53:23;;;;;;;0.40;0.03;;;;;;;23.74;51.58;100373.59;4868367;28;98138;-66
2022/09/09 10:55:57;;;;;;;0.17;0.00;;;;;;;28.14;44.69;100383.38;4855902;28;100022;-66
2022/09/09 10:58:32;;;;;;;0.10;0.00;;;;;;;27.10;47.70;100387.34;4863086;28;98098;-66
2022/09/09 11:01:02;;;;;;;1.50;0.00;;;;;;;27.34;47.40;100386.00;4849815;28;98559;-75
2022/09/09 11:03:29;;;;;;;0.28;0.00;;;;;;;27.25;47.78;100371.69;4830285;28;98189;-66
2022/09/09 11:06:20;;;;;;;0.85;0.00;;;;;;;30.06;44.37;100374.47;4845140;28;98472;-69
2022/09/09 11:08:47;;;;;;;0.47;0.00;;;;;;;30.78;42.85;100374.19;4830645;28;98248;-66
2022/09/09 11:11:20;;;;;;;0.10;0.00;;;;;;;31.74;42.69;100369.81;4848097;28;98244;-76
2022/09/09 11:13:58;;;;;;;0.32;0.00;;;;;;;32.59;41.04;100367.25;4856115;28;98361;-67
2022/09/09 11:16:56;;;;;;;0.10;0.00;;;;;;;33.85;40.35;100378.72;4841125;28;109367;-66
2022/09/09 11:19:39;;;;;;;0.30;0.00;;;;;;;34.70;38.92;100369.78;4859705;28;98168;-66
2022/09/09 11:22:23;;;;;;;0.00;0.00;;;;;;;35.57;37.75;100360.91;4837582;28;97910;-76
2022/09/09 11:25:00;;;;;;;0.57;0.00;;;;;;;36.17;37.47;100355.63;4842095;28;98343;-76
2022/09/09 11:27:53;;;;;;;0.10;0.00;;;;;;;36.73;36.86;100348.72;4847947;28;98207;-76
2022/09/09 11:30:30;;;;;;;0.13;0.00;;;;;;;37.34;35.99;100351.09;4867327;28;99508;-76
2022/09/09 11:33:28;;;;;;;0.17;0.00;;;;;;;37.94;35.43;100338.19;4834041;28;98081;-67
2022/09/09 11:36:10;;;;;;;0.00;0.00;;;;;;;38.31;35.11;100320.25;4848656;28;97955;-66
2022/09/09 11:38:46;;;;;;;0.13;0.00;;;;;;;38.35;34.37;100320.13;4864077;28;97764;-75
2022/09/09 11:41:13;;;;;;;0.00;0.00;;;;;;;38.34;33.77;100315.00;4854765;28;99513;-76
2022/09/09 11:43:51;;;;;;;0.85;0.00;;;;;;;38.90;34.18;100317.53;4860427;28;97835;-76
2022/09/09 11:46:22;;;;;;;0.00;0.00;;;;;;;39.10;32.32;100317.09;4856903;28;97990;-75
2022/09/09 11:49:00;;;;;;;0.20;0.00;;;;;;;39.47;33.35;100303.06;4841439;28;98881;-67
2022/09/09 11:51:30;;;;;;;0.40;0.00;;;;;;;39.55;32.12;100306.34;4850677;28;98924;-75
2022/09/09 11:54:29;;;;;;;0.47;0.00;;;;;;;39.62;31.67;100297.56;4842370;28;98061;-76
2022/09/09 11:56:56;;;;;;;0.17;0.00;;;;;;;39.62;32.27;100294.75;4867819;28;98251;-76
2022/09/09 11:59:29;;;;;;;0.55;0.10;;;;;;;39.59;31.78;100278.78;4828876;28;99369;-76